Time;durP1;ratioP1;P1;durP2;ratioP2;P2;SDS_P1;SDS_P2;PMS_P1;PMS_P2;Temp;Humidity;BMP_temperature;BMP_pressure;BME280_temperature;BME280_humidity;BME280_pressure;Samples;Min_cycle;Max_cycle;Signal;HPM_P1;HPM_P2
2021/08/24 00:01:18;;;;;;;;;10.00;7.25;;;;;19.23;62.90;102115.81;5061125;28;45216;-87
2021/08/24 00:03:44;;;;;;;;;9.00;6.00;;;;;19.25;62.79;102111.50;5060584;28;45537;-89
2021/08/24 00:06:10;;;;;;;;;8.75;7.50;;;;;19.24;62.50;102107.09;5058224;28;47700;-89
2021/08/24 00:08:36;;;;;;;;;9.00;7.75;;;;;19.25;62.62;102114.13;5058935;28;45861;-89
2021/08/24 00:11:03;;;;;;;;;13.75;9.50;;;;;19.27;62.95;102112.44;5059240;28;45414;-89
2021/08/24 00:13:29;;;;;;;;;7.50;7.50;;;;;19.28;63.08;102108.97;5059234;28;45596;-89
2021/08/24 00:15:56;;;;;;;;;10.75;8.25;;;;;19.28;62.98;102110.69;5061071;28;45901;-88
2021/08/24 00:18:38;;;;;;;;;;;;;;;;;;;;;
2021/08/24 00:21:04;;;;;;;;;9.75;8.50;;;;;19.27;63.20;102104.56;5065642;28;68746;-86
2021/08/24 00:23:30;;;;;;;;;12.50;8.00;;;;;19.27;63.01;102109.81;5069927;28;45503;-88
2021/08/24 00:25:59;;;;;;;;;9.75;6.25;;;;;19.29;62.84;102109.84;5063662;28;45331;-87
2021/08/24 00:28:25;;;;;;;;;8.75;7.75;;;;;19.30;63.10;102104.66;5063612;28;45474;-89
2021/08/24 00:30:51;;;;;;;;;6.50;6.50;;;;;19.30;63.03;102095.88;5060937;28;45419;-88
2021/08/24 00:33:18;;;;;;;;;11.00;9.75;;;;;19.28;63.15;102102.81;5068223;28;45391;-86
2021/08/24 00:35:44;;;;;;;;;10.25;8.50;;;;;19.28;63.04;102101.09;5079078;28;45249;-91
2021/08/24 00:38:14;;;;;;;;;8.50;8.50;;;;;19.32;62.69;102094.19;5074942;28;44908;-89
2021/08/24 00:40:40;;;;;;;;;10.00;9.25;;;;;19.30;63.14;102096.78;5066289;28;45459;-88
2021/08/24 00:43:08;;;;;;;;;8.25;8.00;;;;;19.33;63.10;102095.97;5060376;28;45310;-88
2021/08/24 00:45:36;;;;;;;;;18.25;9.00;;;;;19.32;63.63;102095.09;5059504;28;45349;-89
2021/08/24 00:48:02;;;;;;;;;12.25;10.25;;;;;19.28;63.39;102102.81;5060751;28;45654;-89
2021/08/24 00:50:32;;;;;;;;;11.00;10.00;;;;;19.25;63.82;102103.63;5057253;28;45284;-90
2021/08/24 00:53:02;;;;;;;;;11.50;9.25;;;;;19.21;63.96;102093.88;5064544;28;45391;-89
2021/08/24 00:55:28;;;;;;;;;14.00;10.00;;;;;19.23;63.47;102084.28;5060238;28;46361;-89
2021/08/24 00:58:04;;;;;;;;;10.75;10.75;;;;;19.25;64.21;102086.97;5061438;28;45291;-88
2021/08/24 01:00:31;;;;;;;;;19.00;11.75;;;;;19.27;63.62;102101.06;5057797;28;45359;-88
2021/08/24 01:03:07;;;;;;;;;14.25;11.50;;;;;19.30;63.40;102090.63;5057085;28;45379;-87
2021/08/24 01:05:34;;;;;;;;;9.75;8.50;;;;;19.29;63.77;102092.38;5057648;28;45437;-87
2021/08/24 01:08:06;;;;;;;;;11.50;10.50;;;;;19.31;63.84;102095.03;5057343;28;45771;-87
2021/08/24 01:10:42;;;;;;;;;9.75;8.75;;;;;19.28;63.78;102080.09;5058872;28;45303;-87
2021/08/24 01:13:42;;;;;;;;;9.50;8.50;;;;;19.28;63.74;102079.19;5058354;28;45424;-87
2021/08/24 01:16:30;;;;;;;;;10.25;9.75;;;;;19.27;64.06;102086.19;5015219;28;47850;-87
2021/08/24 01:19:24;;;;;;;;;9.00;9.00;;;;;19.24;63.80;102080.81;5063947;28;45445;-87
2021/08/24 01:22:09;;;;;;;;;8.00;8.00;;;;;19.25;63.79;102084.34;5064683;28;44821;-88
2021/08/24 01:25:08;;;;;;;;;8.00;8.00;;;;;19.24;63.70;102088.69;5063050;28;45573;-86
2021/08/24 01:27:42;;;;;;;;;11.75;11.75;;;;;19.18;64.21;102080.66;5043671;28;45475;-88
2021/08/24 01:30:16;;;;;;;;;14.50;11.25;;;;;19.15;64.12;102089.34;5061701;28;45464;-88
2021/08/24 01:33:28;;;;;;;;;18.50;12.75;;;;;19.08;64.17;102083.84;5056212;28;45342;-88
2021/08/24 01:36:15;;;;;;;;;9.25;8.25;;;;;19.03;64.70;102078.47;5024896;28;45414;-87
2021/08/24 01:38:53;;;;;;;;;12.25;11.00;;;;;19.00;64.47;102076.66;5057593;28;46205;-88
2021/08/24 01:41:35;;;;;;;;;12.50;11.50;;;;;18.98;64.49;102078.34;5057287;28;45672;-89
2021/08/24 01:44:22;;;;;;;;;15.50;11.25;;;;;19.01;64.54;102077.53;5058291;28;45422;-88
2021/08/24 01:47:16;;;;;;;;;11.25;9.50;;;;;19.05;64.47;102071.53;5063363;28;45667;-88
2021/08/24 01:49:51;;;;;;;;;11.75;9.75;;;;;19.04;64.85;102072.38;5068286;28;45368;-89
2021/08/24 01:52:22;;;;;;;;;11.75;11.00;;;;;19.02;64.67;102068.81;5062352;28;45422;-88
2021/08/24 01:54:55;;;;;;;;;13.75;9.75;;;;;19.02;64.48;102074.06;5057870;28;45279;-88
2021/08/24 01:57:28;;;;;;;;;12.75;12.75;;;;;19.00;64.36;102070.50;5059715;28;45398;-87
2021/08/24 01:59:59;;;;;;;;;13.75;13.50;;;;;19.02;64.56;102068.81;5059430;28;46268;-90
2021/08/24 02:02:31;;;;;;;;;15.00;12.75;;;;;19.04;64.43;102077.63;5060132;28;46390;-87
2021/08/24 02:05:08;;;;;;;;;13.25;12.25;;;;;18.98;65.00;102073.09;5058217;28;45466;-89
2021/08/24 02:07:35;;;;;;;;;12.75;12.75;;;;;19.00;64.84;102076.66;5069341;28;45335;-89
2021/08/24 02:10:09;;;;;;;;;15.25;13.75;;;;;19.00;65.04;102081.91;5057884;28;46499;-88
2021/08/24 02:12:38;;;;;;;;;18.25;14.75;;;;;18.97;65.34;102075.63;5057361;28;45339;-89
2021/08/24 02:15:05;;;;;;;;;16.00;15.00;;;;;18.96;64.93;102080.00;5058540;28;45421;-87
2021/08/24 02:17:32;;;;;;;;;15.75;15.75;;;;;18.95;65.45;102082.59;5062363;28;45565;-86
2021/08/24 02:20:08;;;;;;;;;15.75;14.50;;;;;18.95;65.33;102083.47;5059956;28;46363;-85
2021/08/24 02:22:38;;;;;;;;;16.75;16.00;;;;;18.96;65.80;102084.34;5055510;28;45550;-87
2021/08/24 02:25:15;;;;;;;;;19.50;17.50;;;;;18.96;65.34;102081.72;5055741;28;45444;-85
2021/08/24 02:27:50;;;;;;;;;19.50;17.50;;;;;18.93;65.53;102082.53;5058300;28;45215;-84
2021/08/24 02:30:16;;;;;;;;;18.50;18.00;;;;;18.86;65.73;102085.78;5056893;28;45386;-86
2021/08/24 02:32:47;;;;;;;;;26.25;19.50;;;;;18.82;65.63;102083.91;5056779;28;45288;-90
2021/08/24 02:35:35;;;;;;;;;16.00;14.50;;;;;18.87;65.52;102084.94;5057595;28;45387;-90
2021/08/24 02:38:28;;;;;;;;;22.25;19.00;;;;;18.91;65.77;102078.94;5056132;28;45246;-90
2021/08/24 02:41:00;;;;;;;;;24.25;23.50;;;;;18.93;65.58;102079.00;5050633;28;45631;-89
2021/08/24 02:43:48;;;;;;;;;25.75;23.50;;;;;18.88;65.86;102085.00;5058544;28;45343;-87
2021/08/24 02:46:27;;;;;;;;;21.75;17.75;;;;;18.85;65.81;102082.25;5067688;28;45380;-88
2021/08/24 02:48:58;;;;;;;;;25.50;22.50;;;;;18.80;65.68;102080.34;5067464;28;45239;-88
2021/08/24 02:51:25;;;;;;;;;24.50;22.50;;;;;18.76;65.90;102087.22;5065665;28;45430;-89
2021/08/24 02:54:08;;;;;;;;;21.00;19.25;;;;;18.70;66.28;102085.28;5065868;28;45331;-87
2021/08/24 02:56:34;;;;;;;;;22.75;18.50;;;;;18.69;66.44;102082.63;5067001;28;45322;-88
2021/08/24 02:59:00;;;;;;;;;28.75;23.25;;;;;18.68;66.76;102089.59;5062674;28;45538;-89
2021/08/24 03:01:26;;;;;;;;;28.50;24.00;;;;;18.71;66.75;102084.47;5061394;28;45979;-89
2021/08/24 03:03:51;;;;;;;;;29.50;22.75;;;;;18.75;66.75;102088.06;5061803;28;45237;-91
2021/08/24 03:06:17;;;;;;;;;22.25;19.50;;;;;18.76;66.70;102087.22;5061186;28;45265;-91
2021/08/24 03:08:43;;;;;;;;;26.50;23.50;;;;;18.76;66.56;102083.72;5061560;28;45346;-90
2021/08/24 03:11:15;;;;;;;;;26.25;21.25;;;;;18.75;66.82;102082.81;5060154;28;46148;-91
2021/08/24 03:13:51;;;;;;;;;22.50;21.75;;;;;18.78;66.70;102076.81;5063562;28;45207;-90
2021/08/24 03:16:33;;;;;;;;;24.00;20.25;;;;;18.78;66.35;102079.41;5067373;28;45251;-90
2021/08/24 03:19:05;;;;;;;;;25.25;21.00;;;;;18.78;66.45;102080.28;5061785;28;45347;-90
2021/08/24 03:21:34;;;;;;;;;26.75;24.25;;;;;18.74;66.43;102072.28;5060127;28;45395;-91
2021/08/24 03:24:01;;;;;;;;;27.75;25.25;;;;;18.71;66.47;102073.09;5059683;28;45390;-91
2021/08/24 03:26:30;;;;;;;;;27.25;25.50;;;;;18.68;66.93;102070.34;5062953;28;45229;-91
2021/08/24 03:28:55;;;;;;;;;21.75;20.25;;;;;18.68;66.22;102078.22;5060670;28;45441;-91
2021/08/24 03:31:22;;;;;;;;;18.00;14.00;;;;;18.66;66.91;102067.69;5060860;28;46009;-90
2021/08/24 03:33:49;;;;;;;;;26.25;25.75;;;;;18.67;66.51;102071.19;5060337;28;45458;-90
2021/08/24 03:36:15;;;;;;;;;28.00;23.50;;;;;18.67;66.65;102073.81;5060201;28;45408;-87
2021/08/24 03:38:41;;;;;;;;;29.00;25.25;;;;;18.63;66.59;102070.22;5063110;28;45227;-91
2021/08/24 03:41:09;;;;;;;;;30.25;25.00;;;;;18.56;66.52;102060.38;5067629;28;45222;-89
2021/08/24 03:43:36;;;;;;;;;24.50;22.75;;;;;18.52;67.11;102063.72;5075838;28;45054;-88
2021/08/24 03:46:03;;;;;;;;;26.25;24.50;;;;;18.46;66.93;102066.16;5072928;28;45395;-91
2021/08/24 03:48:28;;;;;;;;;23.00;22.00;;;;;18.50;66.98;102068.94;5073617;28;45492;-89
2021/08/24 03:50:54;;;;;;;;;29.00;25.75;;;;;18.51;67.20;102070.72;5074965;28;45110;-90
2021/08/24 03:53:20;;;;;;;;;31.25;25.75;;;;;18.51;67.12;102068.09;5077749;28;45169;-90
2021/08/24 03:55:45;;;;;;;;;27.50;25.50;;;;;18.52;67.05;102077.72;5079230;28;45237;-88
2021/08/24 03:58:12;;;;;;;;;25.75;23.00;;;;;18.54;66.97;102069.94;5079902;28;44810;-89
2021/08/24 04:00:41;;;;;;;;;28.25;26.00;;;;;18.55;66.51;102071.72;5074413;28;45533;-88
2021/08/24 04:03:07;;;;;;;;;26.50;23.00;;;;;18.56;66.63;102074.38;5075405;28;45461;-89
2021/08/24 04:05:32;;;;;;;;;29.25;24.00;;;;;18.57;66.87;102067.41;5073643;28;44764;-90
2021/08/24 04:07:58;;;;;;;;;28.00;24.50;;;;;18.58;66.67;102077.03;5070947;28;45447;-90
2021/08/24 04:10:24;;;;;;;;;26.75;22.50;;;;;18.58;66.90;102076.16;5062550;28;45408;-90
2021/08/24 04:12:49;;;;;;;;;25.75;24.75;;;;;18.58;66.69;102073.53;5067225;28;45476;-89
2021/08/24 04:15:15;;;;;;;;;26.50;26.00;;;;;18.61;66.46;102078.88;5062124;28;45238;-86
2021/08/24 04:17:41;;;;;;;;;22.75;21.50;;;;;18.60;66.66;102077.97;5063940;28;45212;-89
2021/08/24 04:20:09;;;;;;;;;32.25;26.75;;;;;18.60;66.57;102082.34;5065663;28;45559;-91
2021/08/24 04:22:37;;;;;;;;;31.25;23.75;;;;;18.58;66.49;102082.28;5059804;28;45898;-89
2021/08/24 04:25:03;;;;;;;;;25.00;23.25;;;;;18.57;66.42;102085.78;5062956;28;45343;-90
2021/08/24 04:27:29;;;;;;;;;29.75;27.50;;;;;18.56;66.66;102090.09;5062267;28;45554;-90
2021/08/24 04:29:55;;;;;;;;;29.00;26.00;;;;;18.58;66.76;102086.66;5059303;28;45835;-91
2021/08/24 04:32:26;;;;;;;;;32.25;26.50;;;;;18.56;66.86;102090.09;5060259;28;45187;-89
2021/08/24 04:34:53;;;;;;;;;33.50;29.50;;;;;18.56;66.76;102095.34;5061559;28;45430;-88
2021/08/24 04:37:19;;;;;;;;;25.00;23.00;;;;;18.57;66.51;102091.00;5058923;28;45470;-88
2021/08/24 04:39:45;;;;;;;;;29.25;26.00;;;;;18.59;66.99;102091.06;5059929;28;46539;-84
2021/08/24 04:42:10;;;;;;;;;24.50;24.00;;;;;18.58;66.24;102092.78;5063188;28;45247;-86
2021/08/24 04:44:36;;;;;;;;;26.75;25.00;;;;;18.59;66.29;102086.69;5062495;28;45283;-86
2021/08/24 04:47:02;;;;;;;;;30.00;25.50;;;;;18.59;66.32;102097.19;5059487;28;45213;-89
2021/08/24 04:49:27;;;;;;;;;30.25;26.25;;;;;18.57;66.50;102096.25;5058784;28;47653;-88
2021/08/24 04:51:53;;;;;;;;;23.75;23.00;;;;;18.60;66.32;102098.97;5058842;28;45249;-89
2021/08/24 04:54:19;;;;;;;;;34.00;32.00;;;;;18.58;66.33;102094.50;5065026;28;45335;-88
2021/08/24 04:56:47;;;;;;;;;30.00;27.75;;;;;18.58;66.25;102103.25;5063687;28;45393;-84
2021/08/24 04:59:13;;;;;;;;;25.50;22.50;;;;;18.56;66.46;102100.59;5059317;28;45260;-88
2021/08/24 05:01:39;;;;;;;;;25.75;22.00;;;;;18.54;66.14;102093.53;5059729;28;45419;-89
2021/08/24 05:04:05;;;;;;;;;27.50;25.00;;;;;18.54;66.17;102101.41;5058683;28;45280;-91
2021/08/24 05:06:30;;;;;;;;;32.50;24.25;;;;;18.52;66.10;102096.09;5058319;28;45447;-88
2021/08/24 05:08:56;;;;;;;;;23.25;22.50;;;;;18.49;65.87;102095.09;5066604;28;45186;-90
2021/08/24 05:11:22;;;;;;;;;24.25;20.00;;;;;18.51;66.28;102104.81;5064641;28;45448;-90
2021/08/24 05:13:47;;;;;;;;;22.75;17.75;;;;;18.50;66.21;102107.38;5061533;28;45248;-89
2021/08/24 05:16:13;;;;;;;;;22.25;20.75;;;;;18.50;66.05;102110.00;5064546;28;45378;-90
2021/08/24 05:18:40;;;;;;;;;25.50;21.50;;;;;18.52;65.93;102106.56;5050753;28;46759;-87
2021/08/24 05:21:09;;;;;;;;;22.25;20.00;;;;;18.54;66.32;102109.25;5062999;28;45289;-87
2021/08/24 05:23:35;;;;;;;;;25.25;22.50;;;;;18.55;65.88;102105.81;5056179;28;45407;-88
2021/08/24 05:26:10;;;;;;;;;20.25;19.75;;;;;18.54;66.00;102099.66;5058461;28;45345;-89
2021/08/24 05:28:36;;;;;;;;;25.50;21.50;;;;;18.52;65.77;102098.69;5059208;28;46087;-88
2021/08/24 05:31:02;;;;;;;;;27.25;21.50;;;;;18.51;65.67;102107.44;5039751;28;45528;-89
2021/08/24 05:33:28;;;;;;;;;22.25;21.75;;;;;18.53;65.78;102116.22;5058497;28;45311;-85
2021/08/24 05:35:53;;;;;;;;;26.25;24.50;;;;;18.54;65.71;102112.75;5064357;28;45178;-86
2021/08/24 05:38:19;;;;;;;;;26.50;24.00;;;;;18.56;65.75;102108.47;5050290;28;47686;-86
2021/08/24 05:40:45;;;;;;;;;20.75;19.50;;;;;18.59;65.78;102122.53;5040709;28;45800;-87
2021/08/24 05:43:10;;;;;;;;;21.75;19.50;;;;;18.59;65.64;102118.16;5057190;28;45453;-88
2021/08/24 05:45:36;;;;;;;;;21.50;18.75;;;;;18.58;65.51;102119.00;5056278;28;45552;-89
2021/08/24 05:48:02;;;;;;;;;26.00;22.00;;;;;18.56;65.33;102116.34;5057376;28;45771;-85
2021/08/24 05:50:27;;;;;;;;;22.25;17.00;;;;;18.57;65.08;102109.38;5057495;28;45458;-86
2021/08/24 05:52:53;;;;;;;;;19.50;17.00;;;;;18.59;65.33;102119.91;5063266;28;46070;-83
2021/08/24 05:55:20;;;;;;;;;24.75;20.75;;;;;18.60;65.21;102121.69;5059559;28;45317;-85
2021/08/24 05:57:45;;;;;;;;;22.50;18.25;;;;;18.63;65.11;102119.16;5059953;28;46350;-82
2021/08/24 06:03:32;;;;;;;;;23.75;22.00;;;;;18.67;65.08;102116.69;5056137;28;45359;-82
2021/08/24 06:05:58;;;;;;;;;21.00;19.50;;;;;18.67;64.81;102118.41;5054899;28;45553;-86
2021/08/24 06:08:25;;;;;;;;;22.50;21.25;;;;;18.67;65.37;102118.41;5056530;28;45930;-79
2021/08/24 06:10:51;;;;;;;;;20.75;20.50;;;;;18.69;65.08;102127.22;5056104;28;45717;-80
2021/08/24 06:13:17;;;;;;;;;18.00;16.00;;;;;18.71;65.48;102122.94;5047978;28;45463;-85
2021/08/24 06:15:43;;;;;;;;;24.75;22.50;;;;;18.72;64.78;102133.47;5043940;28;45481;-87
2021/08/24 06:18:08;;;;;;;;;31.00;24.00;;;;;18.72;65.23;102129.97;5041172;28;46714;-81
2021/08/24 06:20:34;;;;;;;;;22.50;20.00;;;;;18.76;65.07;102129.19;5058157;28;45387;-89
2021/08/24 06:23:00;;;;;;;;;26.25;20.00;;;;;18.79;65.09;102126.69;5055168;28;45555;-87
2021/08/24 06:25:26;;;;;;;;;18.00;17.00;;;;;18.82;64.97;102123.25;5055593;28;45393;-83
2021/08/24 06:27:52;;;;;;;;;25.50;18.50;;;;;18.86;64.73;102120.78;5054744;28;46050;-84
2021/08/24 06:30:19;;;;;;;;;22.25;20.25;;;;;18.89;64.78;102125.25;5056257;28;45959;-81
2021/08/24 06:32:48;;;;;;;;;24.50;19.00;;;;;18.91;64.18;102123.53;5050016;28;45366;-81
2021/08/24 06:35:16;;;;;;;;;23.25;23.25;;;;;18.92;64.39;102117.47;5054328;28;45309;-80
2021/08/24 06:37:49;;;;;;;;;21.00;19.75;;;;;18.91;64.88;102120.03;5059099;28;45501;-82
2021/08/24 06:40:15;;;;;;;;;21.75;20.75;;;;;18.91;64.49;102117.41;5060730;28;45784;-82
2021/08/24 06:42:44;;;;;;;;;23.00;23.00;;;;;18.93;64.59;102127.16;5061050;28;45423;-83
2021/08/24 06:45:21;;;;;;;;;20.75;18.25;;;;;18.97;63.93;102130.75;5060258;28;45288;-81
2021/08/24 06:47:47;;;;;;;;;30.00;22.00;;;;;19.00;64.32;102123.91;5056180;28;46073;-89
2021/08/24 06:50:12;;;;;;;;;17.25;16.25;;;;;19.06;63.96;102119.66;5036897;28;45381;-78
2021/08/24 06:52:38;;;;;;;;;22.25;20.00;;;;;19.16;63.90;102125.25;5055360;28;45371;-81
2021/08/24 06:55:05;;;;;;;;;22.00;18.75;;;;;19.25;63.88;102134.25;5049923;28;46421;-82
2021/08/24 06:57:30;;;;;;;;;21.00;19.25;;;;;19.31;63.82;102130.06;5044063;28;46133;-80
2021/08/24 06:59:56;;;;;;;;;24.25;23.00;;;;;19.36;63.59;102140.72;5047612;28;45465;-79
2021/08/24 07:02:22;;;;;;;;;23.75;22.00;;;;;19.40;63.43;102129.44;5039493;28;45502;-81
2021/08/24 07:04:48;;;;;;;;;20.75;18.75;;;;;19.44;63.43;102135.66;5055347;27;45557;-78
2021/08/24 07:07:16;;;;;;;;;17.25;16.50;;;;;19.46;63.38;102140.13;5039239;28;46276;-79
2021/08/24 07:09:42;;;;;;;;;21.75;15.75;;;;;19.48;63.17;102138.44;5055578;28;45710;-79
2021/08/24 07:12:08;;;;;;;;;27.25;21.00;;;;;19.51;62.73;102134.09;5055399;28;45244;-76
2021/08/24 07:14:34;;;;;;;;;25.00;20.50;;;;;19.52;62.95;102128.91;5044005;28;45581;-77
2021/08/24 07:17:02;;;;;;;;;24.00;24.00;;;;;19.53;62.85;102132.41;5053855;28;45379;-81
2021/08/24 07:19:28;;;;;;;;;26.25;22.00;;;;;19.54;62.80;102132.50;5054458;28;45862;-82
2021/08/24 07:21:53;;;;;;;;;25.50;20.75;;;;;19.57;62.35;102134.31;5056678;28;45383;-84
2021/08/24 07:24:19;;;;;;;;;24.25;18.25;;;;;19.59;62.19;102127.38;5057213;28;45391;-84
2021/08/24 07:26:45;;;;;;;;;24.00;21.00;;;;;19.59;62.36;102127.38;5054634;28;45820;-86
2021/08/24 07:29:10;;;;;;;;;18.50;18.00;;;;;19.61;62.59;102130.91;5054855;28;45448;-87
2021/08/24 07:31:37;;;;;;;;;20.50;18.00;;;;;19.63;62.24;102134.47;5056849;28;45442;-80
2021/08/24 07:34:05;;;;;;;;;22.75;21.50;;;;;19.63;62.05;102132.75;5058777;28;45412;-81
2021/08/24 07:36:31;;;;;;;;;22.25;18.50;;;;;19.67;62.63;102124.94;5060891;28;46017;-80
2021/08/24 07:38:56;;;;;;;;;18.50;18.25;;;;;19.67;62.51;102125.84;5056411;28;45424;-81
2021/08/24 07:41:22;;;;;;;;;21.50;18.50;;;;;19.69;62.57;102131.13;5057203;28;45334;-80
2021/08/24 07:43:48;;;;;;;;;21.75;18.25;;;;;19.70;62.42;102135.53;5051708;28;45677;-79
2021/08/24 07:46:13;;;;;;;;;20.25;19.75;;;;;19.72;62.24;102126.84;5056745;28;45771;-79
2021/08/24 07:48:39;;;;;;;;;20.00;18.50;;;;;19.75;62.36;102131.31;5056822;28;45339;-80
2021/08/24 07:51:05;;;;;;;;;18.25;17.00;;;;;19.76;61.74;102130.47;5057498;28;45466;-80
2021/08/24 07:53:30;;;;;;;;;17.50;14.00;;;;;19.77;62.28;102133.13;5039785;28;45438;-80
2021/08/24 07:55:57;;;;;;;;;18.00;17.00;;;;;19.79;61.93;102134.06;5057815;28;46061;-80
2021/08/24 07:58:23;;;;;;;;;20.00;16.50;;;;;19.82;61.68;102128.00;5057485;28;45291;-81
2021/08/24 08:00:48;;;;;;;;;20.00;19.50;;;;;19.83;62.13;102129.78;5057252;28;45364;-80
2021/08/24 08:03:15;;;;;;;;;19.50;15.25;;;;;19.85;62.16;102124.56;5057830;28;45521;-80
2021/08/24 08:05:41;;;;;;;;;19.75;17.75;;;;;19.87;61.32;102125.53;5057400;28;45966;-81
2021/08/24 08:08:07;;;;;;;;;19.25;17.00;;;;;19.89;61.87;102129.09;5038715;28;45446;-91
2021/08/24 08:10:35;;;;;;;;;18.50;15.75;;;;;19.88;61.25;102125.56;5057298;28;45426;-84
2021/08/24 08:13:01;;;;;;;;;13.25;13.00;;;;;19.85;61.96;102119.31;5041154;28;45501;-83
2021/08/24 08:15:31;;;;;;;;;17.50;15.00;;;;;19.87;61.87;102123.78;5057134;28;45942;-82
2021/08/24 08:17:57;;;;;;;;;14.00;13.50;;;;;19.89;61.19;102121.22;5057384;28;45355;-82
2021/08/24 08:20:23;;;;;;;;;16.50;16.25;;;;;19.93;61.35;102126.59;5056976;28;45330;-86
2021/08/24 08:22:49;;;;;;;;;17.00;15.25;;;;;20.01;61.24;102123.28;5056880;28;45463;-83
2021/08/24 08:25:15;;;;;;;;;15.75;15.25;;;;;20.12;60.71;102116.56;5056077;28;46088;-80
2021/08/24 08:27:41;;;;;;;;;15.00;12.25;;;;;20.23;60.22;102123.00;5056318;28;45858;-81
2021/08/24 08:30:08;;;;;;;;;14.00;12.50;;;;;20.31;60.10;102117.94;5056052;28;45484;-80
2021/08/24 08:32:38;;;;;;;;;16.75;13.75;;;;;20.37;59.47;102125.09;5056285;28;45408;-81
2021/08/24 08:35:04;;;;;;;;;11.50;10.25;;;;;20.42;59.72;102129.63;5052191;28;45403;-80
2021/08/24 08:37:30;;;;;;;;;17.50;16.75;;;;;20.48;59.81;102127.97;5056580;28;45757;-81
2021/08/24 08:39:56;;;;;;;;;13.00;11.00;;;;;20.51;58.92;102125.44;5056766;28;45475;-81
2021/08/24 08:42:33;;;;;;;;;9.00;9.00;;;;;20.56;59.24;102127.31;5057038;28;45350;-81
2021/08/24 08:45:11;;;;;;;;;16.50;11.25;;;;;20.57;58.92;102125.59;5054480;28;46619;-81
2021/08/24 08:48:01;;;;;;;;;14.75;11.25;;;;;20.60;58.39;102127.41;5058229;28;45837;-81
2021/08/24 08:50:41;;;;;;;;;12.25;9.50;;;;;20.62;58.12;102123.94;5053865;28;45349;-81
2021/08/24 08:53:34;;;;;;;;;17.00;11.00;;;;;20.64;57.59;102127.50;5054782;28;45450;-81
2021/08/24 08:56:06;;;;;;;;;13.75;12.50;;;;;20.66;58.22;102124.91;5053423;28;46041;-81
2021/08/24 08:58:43;;;;;;;;;14.75;11.00;;;;;20.69;58.15;102125.00;5056133;28;45197;-81
2021/08/24 09:01:24;;;;;;;;;11.25;11.25;;;;;20.71;57.62;102121.53;5035433;28;45330;-81
2021/08/24 09:04:21;;;;;;;;;15.00;14.00;;;;;20.75;57.42;102125.16;5053872;28;45424;-82
2021/08/24 09:06:55;;;;;;;;;10.25;9.25;;;;;20.76;57.78;102126.06;5052606;28;45349;-81
2021/08/24 09:09:21;;;;;;;;;9.25;9.25;;;;;20.78;57.34;102117.34;5055304;28;45793;-81
2021/08/24 09:11:49;;;;;;;;;13.00;10.25;;;;;20.81;57.35;102114.78;5056285;28;45246;-82
2021/08/24 09:14:33;;;;;;;;;8.00;8.00;;;;;20.83;56.55;102112.19;5056085;28;45335;-82
2021/08/24 09:17:22;;;;;;;;;10.25;9.25;;;;;20.84;56.75;102120.09;5056404;28;46017;-81
2021/08/24 09:20:10;;;;;;;;;9.00;9.00;;;;;20.86;56.13;102115.78;5055928;28;45481;-81
2021/08/24 09:22:35;;;;;;;;;11.25;11.25;;;;;20.90;56.77;102108.81;5056093;28;45485;-81
2021/08/24 09:25:05;;;;;;;;;9.50;8.00;;;;;20.92;56.66;102107.13;5056922;28;45233;-81
2021/08/24 09:27:53;;;;;;;;;11.00;10.00;;;;;20.94;56.75;102108.06;5056521;28;47685;-81
2021/08/24 09:30:19;;;;;;;;;8.75;6.75;;;;;20.96;56.49;102108.97;5055965;28;45995;-82
2021/08/24 09:32:46;;;;;;;;;9.00;6.50;;;;;20.99;55.62;102108.16;5055496;28;45491;-81
2021/08/24 09:35:15;;;;;;;;;7.50;6.00;;;;;21.02;55.08;102110.88;5055785;28;45601;-83
2021/08/24 09:37:41;;;;;;;;;7.00;7.00;;;;;21.04;55.02;102111.78;5055763;28;45540;-80
2021/08/24 09:40:10;;;;;;;;;7.75;7.00;;;;;21.07;55.55;102109.22;5037496;28;45355;-83
2021/08/24 09:42:45;;;;;;;;;9.00;8.25;;;;;21.08;54.72;102089.91;5055748;28;45469;-83
2021/08/24 09:45:19;;;;;;;;;12.75;11.25;;;;;21.11;54.03;102097.03;5054402;28;45307;-83
2021/08/24 09:48:00;;;;;;;;;8.25;6.50;;;;;21.15;54.07;102099.75;5054284;28;45485;-88
2021/08/24 09:50:45;;;;;;;;;6.50;5.25;;;;;21.20;53.67;102094.59;5055683;28;45795;-86
2021/08/24 09:53:27;;;;;;;;;9.50;8.50;;;;;21.23;53.67;102085.84;5039524;28;45450;-86
2021/08/24 09:55:52;;;;;;;;;6.75;6.50;;;;;21.23;53.27;102081.47;5065255;28;45301;-87
2021/08/24 09:58:33;;;;;;;;;7.00;7.00;;;;;21.31;52.94;102087.78;5062867;28;46244;-86
2021/08/24 10:01:07;;;;;;;;;8.25;7.00;;;;;21.37;52.83;102088.75;5058285;28;45673;-86
2021/08/24 10:03:35;;;;;;;;;5.25;5.25;;;;;21.38;51.05;102083.50;5056671;28;45335;-85
2021/08/24 10:06:24;;;;;;;;;6.75;6.75;;;;;21.37;51.10;102079.13;5058042;28;45610;-86
2021/08/24 10:08:54;;;;;;;;;7.00;6.00;;;;;21.43;51.72;102071.34;5057402;28;46086;-87
2021/08/24 10:11:32;;;;;;;;;8.25;6.75;;;;;21.45;51.57;102074.91;5073128;28;45181;-85
2021/08/24 10:14:11;;;;;;;;;6.75;6.50;;;;;21.47;51.43;102067.91;5056801;28;45324;-85
2021/08/24 10:16:41;;;;;;;;;6.75;6.00;;;;;21.49;51.00;102083.75;5035952;28;45284;-85
2021/08/24 10:19:11;;;;;;;;;8.75;8.25;;;;;21.53;50.66;102077.69;5055527;28;45973;-85
2021/08/24 10:22:08;;;;;;;;;6.00;6.00;;;;;21.63;50.31;102090.22;5037485;28;45757;-82
2021/08/24 10:24:38;;;;;;;;;6.50;5.25;;;;;21.72;50.08;102075.44;5008002;28;45326;-82
2021/08/24 10:27:20;;;;;;;;;14.00;13.75;;;;;21.78;49.38;102067.63;5058111;28;45387;-81
2021/08/24 10:29:51;;;;;;;;;12.25;9.00;;;;;21.89;49.50;102070.47;5053872;28;46379;-81
2021/08/24 10:32:32;;;;;;;;;8.00;8.00;;;;;21.94;49.13;102071.44;5053512;28;45469;-82
2021/08/24 10:35:01;;;;;;;;;5.50;5.50;;;;;22.01;48.60;102069.78;5053810;28;45453;-82
2021/08/24 10:37:48;;;;;;;;;4.00;4.00;;;;;22.04;48.44;102065.44;5054036;28;45558;-82
2021/08/24 10:40:42;;;;;;;;;9.25;7.00;;;;;22.06;47.34;102065.50;5066860;28;45327;-80
2021/08/24 10:43:10;;;;;;;;;8.00;6.50;;;;;22.06;46.86;102068.13;5059588;28;45466;-81
2021/08/24 10:45:42;;;;;;;;;8.75;7.75;;;;;22.08;47.27;102067.28;5055451;28;45355;-79
2021/08/24 10:48:15;;;;;;;;;7.25;7.00;;;;;22.18;47.18;102059.53;5054952;28;45513;-80
2021/08/24 10:51:09;;;;;;;;;7.50;4.50;;;;;22.24;45.74;102063.16;5053108;28;46532;-79
2021/08/24 10:53:47;;;;;;;;;6.00;3.75;;;;;22.23;43.61;102063.16;5020588;28;45751;-80
2021/08/24 10:56:50;;;;;;;;;4.75;3.75;;;;;22.25;43.16;102059.66;5056395;28;45438;-82
2021/08/24 10:59:19;;;;;;;;;3.75;3.75;;;;;22.27;43.41;102064.97;5037591;28;45679;-82
2021/08/24 11:02:13;;;;;;;;;5.75;4.25;;;;;22.33;43.61;102066.81;5055686;28;45742;-81
2021/08/24 11:05:00;;;;;;;;;9.00;8.25;;;;;22.37;43.45;102063.38;5054684;28;45442;-79
2021/08/24 11:07:47;;;;;;;;;8.00;6.00;;;;;22.36;42.62;102061.59;5040661;28;45302;-78
2021/08/24 11:10:30;;;;;;;;;7.50;7.50;;;;;22.33;43.38;102059.78;5058862;28;45367;-80
2021/08/24 11:13:30;;;;;;;;;9.50;8.50;;;;;22.35;42.83;102057.16;5050831;28;45537;-79
2021/08/24 11:16:26;;;;;;;;;6.00;6.00;;;;;22.39;43.16;102059.88;5058137;28;45430;-81
2021/08/24 11:19:03;;;;;;;;;5.50;4.25;;;;;22.42;42.32;102052.06;5044394;28;45461;-81
2021/08/24 11:21:49;;;;;;;;;6.50;6.50;;;;;22.45;42.45;102053.84;5056847;28;45418;-81
2021/08/24 11:24:27;;;;;;;;;5.75;5.25;;;;;22.44;41.94;102048.56;5058058;28;45404;-80
2021/08/24 11:27:02;;;;;;;;;3.25;3.00;;;;;22.49;42.11;102054.78;5058121;28;45344;-80
2021/08/24 11:29:36;;;;;;;;;4.00;4.00;;;;;22.54;41.87;102050.47;5058191;28;45312;-79
2021/08/24 11:32:17;;;;;;;;;3.00;3.00;;;;;22.57;41.99;102048.75;5058850;28;45241;-81
2021/08/24 11:34:49;;;;;;;;;4.75;4.00;;;;;22.67;41.83;102038.31;5057478;28;45810;-81
2021/08/24 11:37:19;;;;;;;;;5.25;4.00;;;;;22.77;41.58;102042.88;5058083;28;45604;-82